sensor_id;sensor_type;location;lat;lon;timestamp;P1;durP1;ratioP1;P2;durP2;ratioP2
33347;SDS011;19707;51.158;17.124;2022-12-20T00:02:33;48.48;;;25.45;;
33347;SDS011;19707;51.158;17.124;2022-12-20T00:05:36;46.00;;;28.45;;
33347;SDS011;19707;51.158;17.124;2022-12-20T00:08:40;33.05;;;19.30;;
33347;SDS011;19707;51.158;17.124;2022-12-20T00:11:42;41.00;;;23.32;;
33347;SDS011;19707;51.158;17.124;2022-12-20T00:14:43;42.80;;;26.90;;
33347;SDS011;19707;51.158;17.124;2022-12-20T00:17:45;42.75;;;24.77;;
33347;SDS011;19707;51.158;17.124;2022-12-20T00:20:47;46.92;;;24.63;;
33347;SDS011;19707;51.158;17.124;2022-12-20T00:23:48;38.48;;;22.30;;
33347;SDS011;19707;51.158;17.124;2022-12-20T00:26:51;43.15;;;23.02;;
33347;SDS011;19707;51.158;17.124;2022-12-20T00:29:53;45.17;;;24.63;;
33347;SDS011;19707;51.158;17.124;2022-12-20T00:32:54;41.33;;;24.25;;
33347;SDS011;19707;51.158;17.124;2022-12-20T00:35:56;39.27;;;23.47;;
33347;SDS011;19707;51.158;17.124;2022-12-20T00:38:58;37.53;;;21.75;;
33347;SDS011;19707;51.158;17.124;2022-12-20T00:42:01;44.27;;;24.47;;
33347;SDS011;19707;51.158;17.124;2022-12-20T00:45:03;40.85;;;23.12;;
33347;SDS011;19707;51.158;17.124;2022-12-20T00:48:05;37.42;;;22.45;;
33347;SDS011;19707;51.158;17.124;2022-12-20T00:51:07;53.87;;;30.85;;
33347;SDS011;19707;51.158;17.124;2022-12-20T00:54:12;86.32;;;50.58;;
33347;SDS011;19707;51.158;17.124;2022-12-20T00:57:13;69.05;;;38.23;;
33347;SDS011;19707;51.158;17.124;2022-12-20T01:00:15;52.03;;;28.57;;
33347;SDS011;19707;51.158;17.124;2022-12-20T01:03:17;41.08;;;25.02;;
33347;SDS011;19707;51.158;17.124;2022-12-20T01:06:19;40.67;;;22.65;;
33347;SDS011;19707;51.158;17.124;2022-12-20T01:09:21;41.68;;;23.85;;
33347;SDS011;19707;51.158;17.124;2022-12-20T01:12:23;41.85;;;25.82;;
33347;SDS011;19707;51.158;17.124;2022-12-20T01:15:25;40.67;;;23.98;;
33347;SDS011;19707;51.158;17.124;2022-12-20T01:18:26;40.52;;;22.45;;
33347;SDS011;19707;51.158;17.124;2022-12-20T01:21:28;37.95;;;22.25;;
33347;SDS011;19707;51.158;17.124;2022-12-20T01:24:29;40.58;;;23.10;;
33347;SDS011;19707;51.158;17.124;2022-12-20T01:27:31;39.25;;;22.37;;
33347;SDS011;19707;51.158;17.124;2022-12-20T01:30:33;40.78;;;22.55;;
33347;SDS011;19707;51.158;17.124;2022-12-20T01:33:34;38.80;;;20.88;;
33347;SDS011;19707;51.158;17.124;2022-12-20T01:36:37;39.13;;;22.10;;
33347;SDS011;19707;51.158;17.124;2022-12-20T01:39:38;40.30;;;21.50;;
33347;SDS011;19707;51.158;17.124;2022-12-20T01:42:40;43.02;;;22.95;;
33347;SDS011;19707;51.158;17.124;2022-12-20T01:45:41;38.48;;;22.22;;
33347;SDS011;19707;51.158;17.124;2022-12-20T01:48:44;40.50;;;21.57;;
33347;SDS011;19707;51.158;17.124;2022-12-20T01:55:25;43.98;;;23.52;;
33347;SDS011;19707;51.158;17.124;2022-12-20T01:58:24;44.75;;;23.42;;
33347;SDS011;19707;51.158;17.124;2022-12-20T02:01:25;37.25;;;20.92;;
33347;SDS011;19707;51.158;17.124;2022-12-20T02:04:27;38.58;;;20.82;;
33347;SDS011;19707;51.158;17.124;2022-12-20T02:07:30;37.08;;;20.40;;
33347;SDS011;19707;51.158;17.124;2022-12-20T02:10:36;39.10;;;22.17;;
33347;SDS011;19707;51.158;17.124;2022-12-20T02:28:07;37.13;;;21.10;;
33347;SDS011;19707;51.158;17.124;2022-12-20T02:31:11;40.50;;;20.97;;
33347;SDS011;19707;51.158;17.124;2022-12-20T02:34:16;40.55;;;20.95;;
33347;SDS011;19707;51.158;17.124;2022-12-20T02:37:18;35.88;;;20.80;;
33347;SDS011;19707;51.158;17.124;2022-12-20T02:40:22;36.80;;;19.73;;
33347;SDS011;19707;51.158;17.124;2022-12-20T02:43:26;38.88;;;19.70;;
33347;SDS011;19707;51.158;17.124;2022-12-20T02:46:47;35.63;;;20.50;;
33347;SDS011;19707;51.158;17.124;2022-12-20T02:49:49;39.10;;;21.40;;
33347;SDS011;19707;51.158;17.124;2022-12-20T02:52:51;38.28;;;21.93;;
33347;SDS011;19707;51.158;17.124;2022-12-20T02:55:58;37.03;;;20.48;;
33347;SDS011;19707;51.158;17.124;2022-12-20T03:02:27;36.83;;;20.12;;
33347;SDS011;19707;51.158;17.124;2022-12-20T03:05:32;38.50;;;21.07;;
33347;SDS011;19707;51.158;17.124;2022-12-20T03:08:36;38.85;;;20.88;;
33347;SDS011;19707;51.158;17.124;2022-12-20T03:11:38;40.70;;;21.87;;
33347;SDS011;19707;51.158;17.124;2022-12-20T03:14:39;38.90;;;21.45;;
33347;SDS011;19707;51.158;17.124;2022-12-20T03:17:41;38.65;;;22.30;;
33347;SDS011;19707;51.158;17.124;2022-12-20T03:20:42;39.70;;;21.45;;
33347;SDS011;19707;51.158;17.124;2022-12-20T03:23:44;34.63;;;19.62;;
33347;SDS011;19707;51.158;17.124;2022-12-20T03:26:45;40.75;;;20.02;;
33347;SDS011;19707;51.158;17.124;2022-12-20T03:29:47;39.60;;;20.90;;
33347;SDS011;19707;51.158;17.124;2022-12-20T03:32:49;42.03;;;21.15;;
33347;SDS011;19707;51.158;17.124;2022-12-20T03:35:53;36.10;;;19.90;;
33347;SDS011;19707;51.158;17.124;2022-12-20T03:38:55;35.38;;;19.50;;
33347;SDS011;19707;51.158;17.124;2022-12-20T03:41:56;37.45;;;20.65;;
33347;SDS011;19707;51.158;17.124;2022-12-20T03:44:58;35.05;;;19.32;;
33347;SDS011;19707;51.158;17.124;2022-12-20T03:48:00;39.35;;;21.97;;
33347;SDS011;19707;51.158;17.124;2022-12-20T03:51:01;38.33;;;20.80;;
33347;SDS011;19707;51.158;17.124;2022-12-20T03:54:03;42.65;;;21.17;;
33347;SDS011;19707;51.158;17.124;2022-12-20T03:57:04;37.38;;;20.82;;
33347;SDS011;19707;51.158;17.124;2022-12-20T04:00:07;37.63;;;19.60;;
33347;SDS011;19707;51.158;17.124;2022-12-20T04:03:09;41.90;;;21.82;;
33347;SDS011;19707;51.158;17.124;2022-12-20T04:06:11;38.33;;;20.43;;
33347;SDS011;19707;51.158;17.124;2022-12-20T04:09:13;37.58;;;20.20;;
33347;SDS011;19707;51.158;17.124;2022-12-20T04:12:15;38.20;;;20.00;;
33347;SDS011;19707;51.158;17.124;2022-12-20T04:15:17;39.42;;;21.10;;
33347;SDS011;19707;51.158;17.124;2022-12-20T04:18:18;36.33;;;21.30;;
33347;SDS011;19707;51.158;17.124;2022-12-20T04:21:27;39.42;;;21.97;;
33347;SDS011;19707;51.158;17.124;2022-12-20T04:24:31;39.38;;;21.77;;
33347;SDS011;19707;51.158;17.124;2022-12-20T04:27:32;39.58;;;21.45;;
33347;SDS011;19707;51.158;17.124;2022-12-20T04:30:34;40.88;;;20.88;;
33347;SDS011;19707;51.158;17.124;2022-12-20T04:33:35;37.23;;;22.30;;
33347;SDS011;19707;51.158;17.124;2022-12-20T04:36:37;41.15;;;20.88;;
33347;SDS011;19707;51.158;17.124;2022-12-20T04:39:38;37.28;;;20.90;;
33347;SDS011;19707;51.158;17.124;2022-12-20T04:42:40;41.83;;;22.27;;
33347;SDS011;19707;51.158;17.124;2022-12-20T04:45:41;39.18;;;24.25;;
33347;SDS011;19707;51.158;17.124;2022-12-20T04:48:43;42.15;;;22.98;;
33347;SDS011;19707;51.158;17.124;2022-12-20T04:51:45;40.83;;;24.63;;
33347;SDS011;19707;51.158;17.124;2022-12-20T04:54:47;46.23;;;24.20;;
33347;SDS011;19707;51.158;17.124;2022-12-20T04:57:48;39.03;;;23.02;;
33347;SDS011;19707;51.158;17.124;2022-12-20T05:00:50;41.15;;;21.05;;
33347;SDS011;19707;51.158;17.124;2022-12-20T05:03:52;42.23;;;23.15;;
33347;SDS011;19707;51.158;17.124;2022-12-20T05:06:54;45.10;;;23.00;;
33347;SDS011;19707;51.158;17.124;2022-12-20T05:09:56;41.35;;;22.93;;
33347;SDS011;19707;51.158;17.124;2022-12-20T05:12:57;42.13;;;23.02;;
33347;SDS011;19707;51.158;17.124;2022-12-20T05:15:59;48.58;;;23.55;;
33347;SDS011;19707;51.158;17.124;2022-12-20T05:19:00;44.40;;;23.50;;
33347;SDS011;19707;51.158;17.124;2022-12-20T05:22:04;44.27;;;24.45;;
33347;SDS011;19707;51.158;17.124;2022-12-20T05:25:24;47.27;;;25.08;;
33347;SDS011;19707;51.158;17.124;2022-12-20T05:28:44;48.73;;;25.50;;
33347;SDS011;19707;51.158;17.124;2022-12-20T05:31:45;51.02;;;25.90;;
33347;SDS011;19707;51.158;17.124;2022-12-20T05:34:47;45.35;;;25.72;;
33347;SDS011;19707;51.158;17.124;2022-12-20T05:37:49;50.78;;;25.82;;
33347;SDS011;19707;51.158;17.124;2022-12-20T05:40:50;46.23;;;24.37;;
33347;SDS011;19707;51.158;17.124;2022-12-20T05:43:52;44.23;;;25.05;;
33347;SDS011;19707;51.158;17.124;2022-12-20T05:46:53;47.60;;;25.17;;
33347;SDS011;19707;51.158;17.124;2022-12-20T05:49:55;46.25;;;24.87;;
33347;SDS011;19707;51.158;17.124;2022-12-20T05:52:57;46.10;;;26.20;;
33347;SDS011;19707;51.158;17.124;2022-12-20T05:55:59;44.55;;;23.77;;
33347;SDS011;19707;51.158;17.124;2022-12-20T05:59:01;47.48;;;24.50;;
33347;SDS011;19707;51.158;17.124;2022-12-20T06:02:02;49.88;;;24.85;;
33347;SDS011;19707;51.158;17.124;2022-12-20T06:05:04;45.10;;;22.80;;
33347;SDS011;19707;51.158;17.124;2022-12-20T06:08:06;47.50;;;24.63;;
33347;SDS011;19707;51.158;17.124;2022-12-20T06:11:09;50.05;;;25.72;;
33347;SDS011;19707;51.158;17.124;2022-12-20T06:14:11;44.30;;;24.50;;
33347;SDS011;19707;51.158;17.124;2022-12-20T06:17:13;42.65;;;24.32;;
33347;SDS011;19707;51.158;17.124;2022-12-20T06:20:14;47.33;;;25.40;;
33347;SDS011;19707;51.158;17.124;2022-12-20T06:23:16;49.85;;;25.45;;
33347;SDS011;19707;51.158;17.124;2022-12-20T06:26:17;48.75;;;25.97;;
33347;SDS011;19707;51.158;17.124;2022-12-20T06:29:19;51.15;;;25.85;;
33347;SDS011;19707;51.158;17.124;2022-12-20T06:32:22;47.90;;;25.00;;
33347;SDS011;19707;51.158;17.124;2022-12-20T06:35:24;47.78;;;25.02;;
33347;SDS011;19707;51.158;17.124;2022-12-20T06:38:26;52.53;;;26.80;;
33347;SDS011;19707;51.158;17.124;2022-12-20T06:41:27;48.80;;;25.15;;
33347;SDS011;19707;51.158;17.124;2022-12-20T06:44:29;54.08;;;26.57;;
33347;SDS011;19707;51.158;17.124;2022-12-20T06:47:30;46.25;;;24.60;;
33347;SDS011;19707;51.158;17.124;2022-12-20T06:50:32;51.83;;;26.00;;
33347;SDS011;19707;51.158;17.124;2022-12-20T06:53:33;54.35;;;28.10;;
33347;SDS011;19707;51.158;17.124;2022-12-20T06:56:35;52.40;;;27.87;;
33347;SDS011;19707;51.158;17.124;2022-12-20T06:59:36;54.05;;;26.90;;
33347;SDS011;19707;51.158;17.124;2022-12-20T07:02:38;53.78;;;28.00;;
33347;SDS011;19707;51.158;17.124;2022-12-20T07:05:40;51.28;;;27.87;;
33347;SDS011;19707;51.158;17.124;2022-12-20T07:08:41;49.13;;;26.33;;
33347;SDS011;19707;51.158;17.124;2022-12-20T07:11:43;55.83;;;27.80;;
33347;SDS011;19707;51.158;17.124;2022-12-20T07:14:45;48.48;;;25.43;;
33347;SDS011;19707;51.158;17.124;2022-12-20T07:17:46;58.70;;;27.17;;
33347;SDS011;19707;51.158;17.124;2022-12-20T07:20:48;56.55;;;28.62;;
33347;SDS011;19707;51.158;17.124;2022-12-20T07:23:49;54.98;;;27.07;;
33347;SDS011;19707;51.158;17.124;2022-12-20T07:26:51;56.42;;;28.35;;
33347;SDS011;19707;51.158;17.124;2022-12-20T07:29:52;47.58;;;25.68;;
33347;SDS011;19707;51.158;17.124;2022-12-20T07:32:54;56.30;;;28.35;;
33347;SDS011;19707;51.158;17.124;2022-12-20T07:36:04;53.87;;;27.93;;
33347;SDS011;19707;51.158;17.124;2022-12-20T07:39:05;51.53;;;26.20;;
33347;SDS011;19707;51.158;17.124;2022-12-20T07:42:07;58.75;;;30.40;;
33347;SDS011;19707;51.158;17.124;2022-12-20T07:45:10;53.83;;;28.05;;
33347;SDS011;19707;51.158;17.124;2022-12-20T07:48:12;54.20;;;26.20;;
33347;SDS011;19707;51.158;17.124;2022-12-20T07:51:15;48.17;;;26.48;;
33347;SDS011;19707;51.158;17.124;2022-12-20T07:54:29;37.28;;;19.07;;
33347;SDS011;19707;51.158;17.124;2022-12-20T07:57:38;52.03;;;26.02;;
33347;SDS011;19707;51.158;17.124;2022-12-20T08:00:55;55.55;;;27.32;;
33347;SDS011;19707;51.158;17.124;2022-12-20T08:04:01;48.08;;;27.48;;
33347;SDS011;19707;51.158;17.124;2022-12-20T08:07:05;54.85;;;26.77;;
33347;SDS011;19707;51.158;17.124;2022-12-20T08:10:08;52.23;;;26.55;;
33347;SDS011;19707;51.158;17.124;2022-12-20T08:13:12;67.30;;;42.45;;
33347;SDS011;19707;51.158;17.124;2022-12-20T08:16:14;50.40;;;28.00;;
33347;SDS011;19707;51.158;17.124;2022-12-20T08:19:15;66.62;;;37.05;;
33347;SDS011;19707;51.158;17.124;2022-12-20T08:22:17;60.70;;;34.73;;
33347;SDS011;19707;51.158;17.124;2022-12-20T08:25:19;71.70;;;40.58;;
33347;SDS011;19707;51.158;17.124;2022-12-20T08:28:21;72.80;;;38.45;;
33347;SDS011;19707;51.158;17.124;2022-12-20T08:31:23;56.02;;;31.25;;
33347;SDS011;19707;51.158;17.124;2022-12-20T08:34:25;51.48;;;28.62;;
33347;SDS011;19707;51.158;17.124;2022-12-20T08:37:27;58.02;;;30.85;;
33347;SDS011;19707;51.158;17.124;2022-12-20T08:40:28;56.00;;;28.75;;
33347;SDS011;19707;51.158;17.124;2022-12-20T08:43:31;53.30;;;28.80;;
33347;SDS011;19707;51.158;17.124;2022-12-20T08:46:33;63.15;;;32.15;;
33347;SDS011;19707;51.158;17.124;2022-12-20T08:49:36;62.75;;;31.77;;
33347;SDS011;19707;51.158;17.124;2022-12-20T08:52:38;59.55;;;32.58;;
33347;SDS011;19707;51.158;17.124;2022-12-20T08:55:40;60.55;;;28.75;;
33347;SDS011;19707;51.158;17.124;2022-12-20T08:58:42;64.70;;;37.78;;
33347;SDS011;19707;51.158;17.124;2022-12-20T09:01:44;51.60;;;29.92;;
33347;SDS011;19707;51.158;17.124;2022-12-20T09:04:46;50.52;;;28.57;;
33347;SDS011;19707;51.158;17.124;2022-12-20T09:07:48;61.92;;;30.45;;
33347;SDS011;19707;51.158;17.124;2022-12-20T09:10:49;57.08;;;30.17;;
33347;SDS011;19707;51.158;17.124;2022-12-20T09:13:53;65.15;;;32.60;;
33347;SDS011;19707;51.158;17.124;2022-12-20T09:16:56;52.03;;;28.85;;
33347;SDS011;19707;51.158;17.124;2022-12-20T09:19:58;56.90;;;28.55;;
33347;SDS011;19707;51.158;17.124;2022-12-20T09:23:00;60.45;;;29.80;;
33347;SDS011;19707;51.158;17.124;2022-12-20T09:26:07;63.90;;;33.13;;
33347;SDS011;19707;51.158;17.124;2022-12-20T09:29:08;51.83;;;29.18;;
33347;SDS011;19707;51.158;17.124;2022-12-20T09:32:09;56.00;;;30.12;;
33347;SDS011;19707;51.158;17.124;2022-12-20T09:35:12;55.90;;;27.95;;
33347;SDS011;19707;51.158;17.124;2022-12-20T09:38:15;51.50;;;26.57;;
33347;SDS011;19707;51.158;17.124;2022-12-20T09:44:39;59.23;;;31.60;;
33347;SDS011;19707;51.158;17.124;2022-12-20T09:47:41;56.60;;;30.57;;
33347;SDS011;19707;51.158;17.124;2022-12-20T09:50:57;51.02;;;26.85;;
33347;SDS011;19707;51.158;17.124;2022-12-20T09:57:49;67.92;;;35.23;;
33347;SDS011;19707;51.158;17.124;2022-12-20T10:01:16;57.85;;;30.40;;
33347;SDS011;19707;51.158;17.124;2022-12-20T10:04:25;57.90;;;31.02;;
33347;SDS011;19707;51.158;17.124;2022-12-20T10:07:32;58.00;;;30.48;;
33347;SDS011;19707;51.158;17.124;2022-12-20T10:20:45;57.05;;;30.10;;
33347;SDS011;19707;51.158;17.124;2022-12-20T10:24:01;60.15;;;31.68;;
33347;SDS011;19707;51.158;17.124;2022-12-20T10:30:20;56.48;;;30.27;;
33347;SDS011;19707;51.158;17.124;2022-12-20T10:36:30;53.10;;;28.40;;
33347;SDS011;19707;51.158;17.124;2022-12-20T10:39:41;59.88;;;30.20;;
33347;SDS011;19707;51.158;17.124;2022-12-20T10:42:46;53.90;;;30.02;;
33347;SDS011;19707;51.158;17.124;2022-12-20T10:46:00;60.92;;;31.87;;
33347;SDS011;19707;51.158;17.124;2022-12-20T10:49:51;52.53;;;28.45;;
33347;SDS011;19707;51.158;17.124;2022-12-20T10:52:32;59.30;;;30.65;;
33347;SDS011;19707;51.158;17.124;2022-12-20T10:55:36;53.80;;;29.48;;
33347;SDS011;19707;51.158;17.124;2022-12-20T10:58:43;55.85;;;30.68;;
33347;SDS011;19707;51.158;17.124;2022-12-20T11:01:55;62.15;;;31.33;;
33347;SDS011;19707;51.158;17.124;2022-12-20T11:05:01;115.35;;;71.75;;
33347;SDS011;19707;51.158;17.124;2022-12-20T11:08:16;59.65;;;33.38;;
33347;SDS011;19707;51.158;17.124;2022-12-20T11:11:25;59.03;;;31.68;;
33347;SDS011;19707;51.158;17.124;2022-12-20T11:14:26;64.35;;;37.08;;
33347;SDS011;19707;51.158;17.124;2022-12-20T11:17:34;60.75;;;33.20;;
33347;SDS011;19707;51.158;17.124;2022-12-20T11:20:43;55.63;;;30.45;;
33347;SDS011;19707;51.158;17.124;2022-12-20T11:27:15;56.48;;;29.70;;
33347;SDS011;19707;51.158;17.124;2022-12-20T11:30:53;60.10;;;31.20;;
33347;SDS011;19707;51.158;17.124;2022-12-20T11:34:22;57.35;;;29.35;;
33347;SDS011;19707;51.158;17.124;2022-12-20T11:44:52;64.35;;;34.48;;
33347;SDS011;19707;51.158;17.124;2022-12-20T11:51:25;58.75;;;31.82;;
33347;SDS011;19707;51.158;17.124;2022-12-20T11:54:47;60.85;;;32.63;;
33347;SDS011;19707;51.158;17.124;2022-12-20T11:58:03;63.30;;;31.62;;
33347;SDS011;19707;51.158;17.124;2022-12-20T12:01:18;57.27;;;30.48;;
33347;SDS011;19707;51.158;17.124;2022-12-20T12:04:28;58.02;;;30.50;;
33347;SDS011;19707;51.158;17.124;2022-12-20T12:07:37;61.35;;;32.28;;
33347;SDS011;19707;51.158;17.124;2022-12-20T12:10:40;71.35;;;34.92;;
33347;SDS011;19707;51.158;17.124;2022-12-20T12:13:46;58.92;;;30.85;;
33347;SDS011;19707;51.158;17.124;2022-12-20T12:16:49;65.50;;;32.75;;
33347;SDS011;19707;51.158;17.124;2022-12-20T12:19:53;63.35;;;32.08;;
33347;SDS011;19707;51.158;17.124;2022-12-20T12:23:04;64.60;;;33.40;;
33347;SDS011;19707;51.158;17.124;2022-12-20T12:26:23;88.40;;;36.75;;
33347;SDS011;19707;51.158;17.124;2022-12-20T12:29:31;66.92;;;32.03;;
33347;SDS011;19707;51.158;17.124;2022-12-20T12:32:38;62.65;;;32.65;;
33347;SDS011;19707;51.158;17.124;2022-12-20T12:43:17;148.60;;;56.05;;
33347;SDS011;19707;51.158;17.124;2022-12-20T12:46:35;90.03;;;40.17;;
33347;SDS011;19707;51.158;17.124;2022-12-20T12:49:37;160.75;;;61.02;;
33347;SDS011;19707;51.158;17.124;2022-12-20T12:52:41;89.72;;;40.55;;
33347;SDS011;19707;51.158;17.124;2022-12-20T12:55:52;91.85;;;40.90;;
33347;SDS011;19707;51.158;17.124;2022-12-20T13:11:48;84.45;;;36.68;;
33347;SDS011;19707;51.158;17.124;2022-12-20T13:14:51;68.83;;;34.63;;
33347;SDS011;19707;51.158;17.124;2022-12-20T13:17:56;65.40;;;34.65;;
33347;SDS011;19707;51.158;17.124;2022-12-20T13:24:34;64.42;;;34.75;;
33347;SDS011;19707;51.158;17.124;2022-12-20T13:28:35;60.17;;;32.83;;
33347;SDS011;19707;51.158;17.124;2022-12-20T13:37:58;57.58;;;30.35;;
33347;SDS011;19707;51.158;17.124;2022-12-20T13:41:15;60.50;;;31.48;;
33347;SDS011;19707;51.158;17.124;2022-12-20T13:44:26;60.63;;;34.48;;
33347;SDS011;19707;51.158;17.124;2022-12-20T13:47:40;64.85;;;33.65;;
33347;SDS011;19707;51.158;17.124;2022-12-20T13:50:48;59.73;;;30.62;;
33347;SDS011;19707;51.158;17.124;2022-12-20T13:57:01;57.38;;;31.17;;
33347;SDS011;19707;51.158;17.124;2022-12-20T14:00:14;58.33;;;29.52;;
33347;SDS011;19707;51.158;17.124;2022-12-20T14:03:20;62.58;;;30.12;;
33347;SDS011;19707;51.158;17.124;2022-12-20T14:06:25;62.13;;;32.45;;
33347;SDS011;19707;51.158;17.124;2022-12-20T14:09:29;60.23;;;29.65;;
33347;SDS011;19707;51.158;17.124;2022-12-20T14:12:34;55.20;;;29.63;;
33347;SDS011;19707;51.158;17.124;2022-12-20T14:15:36;61.35;;;32.55;;
33347;SDS011;19707;51.158;17.124;2022-12-20T14:18:38;68.42;;;33.83;;
33347;SDS011;19707;51.158;17.124;2022-12-20T14:21:50;59.48;;;32.13;;
33347;SDS011;19707;51.158;17.124;2022-12-20T14:24:52;69.27;;;34.67;;
33347;SDS011;19707;51.158;17.124;2022-12-20T14:27:55;69.65;;;34.20;;
33347;SDS011;19707;51.158;17.124;2022-12-20T14:30:58;68.87;;;33.38;;
33347;SDS011;19707;51.158;17.124;2022-12-20T14:40:36;64.92;;;34.08;;
33347;SDS011;19707;51.158;17.124;2022-12-20T14:43:40;64.32;;;31.15;;
33347;SDS011;19707;51.158;17.124;2022-12-20T14:46:48;61.35;;;31.20;;
33347;SDS011;19707;51.158;17.124;2022-12-20T14:49:59;62.05;;;29.23;;
33347;SDS011;19707;51.158;17.124;2022-12-20T14:53:15;51.15;;;27.62;;
33347;SDS011;19707;51.158;17.124;2022-12-20T14:56:20;44.98;;;22.25;;
33347;SDS011;19707;51.158;17.124;2022-12-20T14:59:25;59.73;;;29.07;;
33347;SDS011;19707;51.158;17.124;2022-12-20T15:08:58;59.08;;;30.65;;
33347;SDS011;19707;51.158;17.124;2022-12-20T15:12:01;91.15;;;46.08;;
33347;SDS011;19707;51.158;17.124;2022-12-20T15:15:03;76.97;;;38.13;;
33347;SDS011;19707;51.158;17.124;2022-12-20T15:18:09;57.50;;;29.55;;
33347;SDS011;19707;51.158;17.124;2022-12-20T15:24:29;95.28;;;47.88;;
33347;SDS011;19707;51.158;17.124;2022-12-20T15:27:32;79.70;;;42.90;;
33347;SDS011;19707;51.158;17.124;2022-12-20T15:30:34;71.20;;;37.05;;
33347;SDS011;19707;51.158;17.124;2022-12-20T15:33:37;77.62;;;39.88;;
33347;SDS011;19707;51.158;17.124;2022-12-20T15:36:41;78.80;;;40.95;;
33347;SDS011;19707;51.158;17.124;2022-12-20T15:39:47;63.87;;;33.33;;
33347;SDS011;19707;51.158;17.124;2022-12-20T15:42:49;70.32;;;34.13;;
33347;SDS011;19707;51.158;17.124;2022-12-20T15:45:52;68.22;;;35.05;;
33347;SDS011;19707;51.158;17.124;2022-12-20T15:48:54;72.32;;;38.98;;
33347;SDS011;19707;51.158;17.124;2022-12-20T15:51:56;73.15;;;39.63;;
33347;SDS011;19707;51.158;17.124;2022-12-20T15:54:58;74.72;;;40.58;;
33347;SDS011;19707;51.158;17.124;2022-12-20T15:58:00;70.83;;;35.30;;
33347;SDS011;19707;51.158;17.124;2022-12-20T16:01:02;72.30;;;35.58;;
33347;SDS011;19707;51.158;17.124;2022-12-20T16:04:04;65.55;;;33.70;;
33347;SDS011;19707;51.158;17.124;2022-12-20T16:07:08;58.85;;;31.55;;
33347;SDS011;19707;51.158;17.124;2022-12-20T16:10:12;63.20;;;33.75;;
33347;SDS011;19707;51.158;17.124;2022-12-20T16:13:15;57.17;;;29.30;;
33347;SDS011;19707;51.158;17.124;2022-12-20T16:16:27;64.27;;;31.97;;
33347;SDS011;19707;51.158;17.124;2022-12-20T16:19:32;70.05;;;36.53;;
33347;SDS011;19707;51.158;17.124;2022-12-20T16:22:33;53.83;;;28.15;;
33347;SDS011;19707;51.158;17.124;2022-12-20T16:25:35;50.55;;;27.70;;
33347;SDS011;19707;51.158;17.124;2022-12-20T16:28:37;59.13;;;30.17;;
33347;SDS011;19707;51.158;17.124;2022-12-20T16:31:39;75.87;;;37.95;;
33347;SDS011;19707;51.158;17.124;2022-12-20T16:34:42;59.60;;;31.15;;
33347;SDS011;19707;51.158;17.124;2022-12-20T16:37:48;60.92;;;31.00;;
33347;SDS011;19707;51.158;17.124;2022-12-20T16:40:49;68.40;;;34.40;;
33347;SDS011;19707;51.158;17.124;2022-12-20T16:43:52;58.92;;;30.37;;
33347;SDS011;19707;51.158;17.124;2022-12-20T16:46:59;69.32;;;35.33;;
33347;SDS011;19707;51.158;17.124;2022-12-20T16:50:01;63.08;;;32.38;;
33347;SDS011;19707;51.158;17.124;2022-12-20T16:53:03;62.17;;;30.15;;
33347;SDS011;19707;51.158;17.124;2022-12-20T16:56:05;64.32;;;33.30;;
33347;SDS011;19707;51.158;17.124;2022-12-20T16:59:08;56.28;;;30.60;;
33347;SDS011;19707;51.158;17.124;2022-12-20T17:02:25;63.38;;;34.03;;
33347;SDS011;19707;51.158;17.124;2022-12-20T17:05:30;68.67;;;36.68;;
33347;SDS011;19707;51.158;17.124;2022-12-20T17:08:35;60.38;;;31.60;;
33347;SDS011;19707;51.158;17.124;2022-12-20T17:11:37;50.92;;;28.50;;
33347;SDS011;19707;51.158;17.124;2022-12-20T17:14:39;58.20;;;29.65;;
33347;SDS011;19707;51.158;17.124;2022-12-20T17:17:41;62.90;;;33.55;;
33347;SDS011;19707;51.158;17.124;2022-12-20T17:20:43;60.73;;;30.48;;
33347;SDS011;19707;51.158;17.124;2022-12-20T17:23:45;65.05;;;31.70;;
33347;SDS011;19707;51.158;17.124;2022-12-20T17:26:47;59.35;;;29.80;;
33347;SDS011;19707;51.158;17.124;2022-12-20T17:29:50;58.75;;;30.08;;
33347;SDS011;19707;51.158;17.124;2022-12-20T17:32:51;54.75;;;29.42;;
33347;SDS011;19707;51.158;17.124;2022-12-20T17:35:53;55.67;;;27.55;;
33347;SDS011;19707;51.158;17.124;2022-12-20T17:38:55;57.90;;;30.35;;
33347;SDS011;19707;51.158;17.124;2022-12-20T17:41:57;50.75;;;27.30;;
33347;SDS011;19707;51.158;17.124;2022-12-20T17:45:00;51.53;;;28.15;;
33347;SDS011;19707;51.158;17.124;2022-12-20T17:48:03;59.45;;;32.63;;
33347;SDS011;19707;51.158;17.124;2022-12-20T17:51:19;71.62;;;38.00;;
33347;SDS011;19707;51.158;17.124;2022-12-20T17:54:29;56.50;;;29.52;;
33347;SDS011;19707;51.158;17.124;2022-12-20T17:57:31;51.33;;;26.37;;
33347;SDS011;19707;51.158;17.124;2022-12-20T18:00:32;48.40;;;26.57;;
33347;SDS011;19707;51.158;17.124;2022-12-20T18:03:34;55.95;;;29.35;;
33347;SDS011;19707;51.158;17.124;2022-12-20T18:06:37;56.05;;;29.42;;
33347;SDS011;19707;51.158;17.124;2022-12-20T18:09:40;56.40;;;29.27;;
33347;SDS011;19707;51.158;17.124;2022-12-20T18:12:41;52.30;;;26.90;;
33347;SDS011;19707;51.158;17.124;2022-12-20T18:15:43;56.18;;;28.92;;
33347;SDS011;19707;51.158;17.124;2022-12-20T18:18:45;64.50;;;35.20;;
33347;SDS011;19707;51.158;17.124;2022-12-20T18:21:47;52.90;;;27.58;;
33347;SDS011;19707;51.158;17.124;2022-12-20T18:24:49;56.13;;;30.60;;
33347;SDS011;19707;51.158;17.124;2022-12-20T18:27:51;54.30;;;28.62;;
33347;SDS011;19707;51.158;17.124;2022-12-20T18:30:53;54.83;;;28.90;;
33347;SDS011;19707;51.158;17.124;2022-12-20T18:33:55;50.12;;;28.00;;
33347;SDS011;19707;51.158;17.124;2022-12-20T18:36:57;55.15;;;30.95;;
33347;SDS011;19707;51.158;17.124;2022-12-20T18:40:01;55.08;;;28.40;;
33347;SDS011;19707;51.158;17.124;2022-12-20T18:43:03;49.08;;;25.80;;
33347;SDS011;19707;51.158;17.124;2022-12-20T18:46:12;59.90;;;31.42;;
33347;SDS011;19707;51.158;17.124;2022-12-20T18:49:17;55.60;;;30.82;;
33347;SDS011;19707;51.158;17.124;2022-12-20T18:52:19;74.47;;;40.20;;
33347;SDS011;19707;51.158;17.124;2022-12-20T18:55:21;68.55;;;37.33;;
33347;SDS011;19707;51.158;17.124;2022-12-20T18:58:22;78.60;;;44.27;;
33347;SDS011;19707;51.158;17.124;2022-12-20T19:01:26;70.35;;;37.75;;
33347;SDS011;19707;51.158;17.124;2022-12-20T19:04:32;68.60;;;36.17;;
33347;SDS011;19707;51.158;17.124;2022-12-20T19:07:34;62.23;;;35.10;;
33347;SDS011;19707;51.158;17.124;2022-12-20T19:10:36;55.33;;;29.10;;
33347;SDS011;19707;51.158;17.124;2022-12-20T19:13:37;58.50;;;32.60;;
33347;SDS011;19707;51.158;17.124;2022-12-20T19:16:41;52.23;;;29.35;;
33347;SDS011;19707;51.158;17.124;2022-12-20T19:19:43;55.83;;;29.87;;
33347;SDS011;19707;51.158;17.124;2022-12-20T19:22:44;63.45;;;32.70;;
33347;SDS011;19707;51.158;17.124;2022-12-20T19:25:46;55.63;;;28.47;;
33347;SDS011;19707;51.158;17.124;2022-12-20T19:28:48;55.80;;;29.12;;
33347;SDS011;19707;51.158;17.124;2022-12-20T19:31:51;59.73;;;30.92;;